Aviation Digital Data Service (ADDS)

Output produced by METARs form (2350 UTC 15 February 2019)
found at http://www.aviationweather.gov/metar/data/
 
Forecast for: LYPG (PODGORICA(TITOGR, CS)
Text: TAF LYPG 151700Z 1518/1618 36009KT CAVOK TX14/1613Z TN03/1606Z
Forecast period: 1800 UTC 15 February 2019 to 1800 UTC 16 February 2019
Forecast type: FROM: standard forecast or significant change
Winds: from the N (360 degrees) at 10 MPH (9 knots; 4.6 m/s)
Visibility: 6 or more miles 10+ km)
Ceiling: unknown
Clouds: missing
Weather: no significant weather forecast for this period
Text: TEMPO 1518/1606 02015G25KT
Forecast period: 1800 UTC 15 February 2019 to 0600 UTC 16 February 2019
Forecast type: TEMPORARY: The following changes expected for less than half the time period
Winds: from the NNE (20 degrees) at 17 MPH (15 knots; 7.7 m/s)
gusting to 29 MPH (25 knots; 12.9 m/s)
Visibility: missing
Ceiling: unknown
Clouds: missing
Weather: no significant weather forecast for this period